Time;durP1;ratioP1;P1;durP2;ratioP2;P2;SDS_P1;SDS_P2;PMS_P1;PMS_P2;Temp;Humidity;BMP_temperature;BMP_pressure;BME280_temperature;BME280_humidity;BME280_pressure;Samples;Min_cycle;Max_cycle;Signal;HPM_P1;HPM_P2
2024/04/17 05:00:44;;;;;;;15.00;7.07;;;;;;;;;;6142754;22;20619;-72
2024/04/17 05:03:10;;;;;;;13.30;7.17;;;;;;;;;;5234482;27;21016;-72
2024/04/17 05:05:36;;;;;;;7.60;5.60;;;;;;;;;;5231796;27;20520;-72
2024/04/17 05:08:02;;;;;;;10.20;5.23;;;;;;;;;;5241438;27;20503;-72
2024/04/17 05:10:29;;;;;;;10.97;6.00;;;;;;;;;;5238427;27;21034;-72
2024/04/17 05:12:55;;;;;;;11.37;6.40;;;;;;;;;;5242105;27;20508;-72
2024/04/17 05:15:21;;;;;;;10.63;6.63;;;;;;;;;;5236712;27;21011;-73
2024/04/17 05:17:47;;;;;;;12.10;6.63;;;;;;;;;;5243285;27;20824;-73
2024/04/17 05:20:13;;;;;;;10.00;6.30;;;;;;;;;;5243421;27;20777;-75
2024/04/17 05:22:38;;;;;;;10.13;6.13;;;;;;;;;;5243336;27;20456;-74
2024/04/17 05:25:04;;;;;;;14.77;6.20;;;;;;;;;;5241980;27;20499;-76
2024/04/17 05:27:30;;;;;;;10.80;5.33;;;;;;;;;;5243509;27;20451;-74
2024/04/17 05:29:56;;;;;;;9.97;5.83;;;;;;;;;;5243582;27;20525;-74
2024/04/17 05:32:22;;;;;;;7.80;4.63;;;;;;;;;;5240991;27;20532;-75
2024/04/17 05:34:48;;;;;;;9.03;5.57;;;;;;;;;;5243067;27;20499;-73
2024/04/17 05:37:14;;;;;;;10.57;5.83;;;;;;;;;;5185613;27;20470;-73
2024/04/17 05:39:40;;;;;;;11.77;6.23;;;;;;;;;;5179080;27;20458;-73
2024/04/17 05:42:06;;;;;;;7.57;5.33;;;;;;;;;;5176657;27;20463;-72
2024/04/17 05:44:32;;;;;;;9.63;5.50;;;;;;;;;;5181277;27;20911;-74
2024/04/17 05:46:58;;;;;;;8.47;5.27;;;;;;;;;;5198402;27;20504;-74
2024/04/17 05:49:24;;;;;;;12.00;5.90;;;;;;;;;;5189787;27;20471;-74
2024/04/17 05:51:50;;;;;;;12.73;6.50;;;;;;;;;;5186373;27;21146;-74
2024/04/17 05:54:16;;;;;;;11.43;6.80;;;;;;;;;;5209450;27;20559;-74
2024/04/17 05:56:42;;;;;;;11.53;6.80;;;;;;;;;;5209389;27;20449;-74
2024/04/17 05:59:08;;;;;;;14.10;7.87;;;;;;;;;;5206856;27;20465;-73
2024/04/17 06:01:34;;;;;;;12.40;7.87;;;;;;;;;;5225672;27;21022;-74
2024/04/17 06:04:00;;;;;;;14.83;7.57;;;;;;;;;;5242836;27;21031;-73
2024/04/17 06:06:26;;;;;;;18.57;9.37;;;;;;;;;;5228620;27;20569;-74
2024/04/17 06:08:52;;;;;;;16.53;9.20;;;;;;;;;;5201903;27;21009;-74
2024/04/17 06:11:18;;;;;;;20.60;10.80;;;;;;;;;;5195204;27;20947;-74
2024/04/17 06:13:44;;;;;;;19.10;9.73;;;;;;;;;;5203291;27;20594;-73
2024/04/17 06:16:10;;;;;;;18.83;10.20;;;;;;;;;;5242277;27;20555;-72
2024/04/17 06:18:36;;;;;;;19.73;10.37;;;;;;;;;;5211596;27;20488;-72
2024/04/17 06:21:02;;;;;;;17.13;9.47;;;;;;;;;;5189722;27;20473;-72
2024/04/17 06:23:28;;;;;;;19.80;11.00;;;;;;;;;;5206847;27;20571;-72
2024/04/17 06:25:54;;;;;;;18.87;10.30;;;;;;;;;;5187122;27;21005;-72
2024/04/17 06:28:20;;;;;;;19.83;9.50;;;;;;;;;;5177118;27;21042;-72
2024/04/17 06:30:46;;;;;;;12.90;8.30;;;;;;;;;;5181006;27;20581;-72
2024/04/17 06:33:12;;;;;;;18.80;10.40;;;;;;;;;;5182405;27;20544;-74
2024/04/17 06:35:38;;;;;;;15.60;9.43;;;;;;;;;;5192502;27;20656;-73
2024/04/17 06:38:04;;;;;;;15.13;9.07;;;;;;;;;;5216401;27;20596;-73
2024/04/17 06:40:30;;;;;;;16.07;8.33;;;;;;;;;;5242034;27;20467;-73
2024/04/17 06:42:56;;;;;;;12.40;6.70;;;;;;;;;;5242339;27;20921;-73
2024/04/17 06:45:22;;;;;;;13.67;7.53;;;;;;;;;;5227904;27;20522;-73
2024/04/17 06:47:48;;;;;;;12.43;6.70;;;;;;;;;;5196719;27;21004;-73
2024/04/17 06:50:14;;;;;;;14.93;8.47;;;;;;;;;;5206470;27;20588;-73
2024/04/17 06:52:40;;;;;;;13.60;7.00;;;;;;;;;;5212498;27;20582;-73
2024/04/17 06:55:06;;;;;;;11.77;6.87;;;;;;;;;;5224719;27;20978;-74
2024/04/17 06:57:32;;;;;;;11.60;7.33;;;;;;;;;;5175650;27;20446;-73
2024/04/17 06:59:58;;;;;;;11.50;6.63;;;;;;;;;;5185365;27;21078;-74
2024/04/17 07:02:24;;;;;;;15.07;7.93;;;;;;;;;;5241585;27;20464;-74
2024/04/17 07:04:50;;;;;;;9.73;5.90;;;;;;;;;;5241967;27;20528;-74
2024/04/17 07:07:16;;;;;;;9.77;5.40;;;;;;;;;;5241506;27;20542;-72
2024/04/17 07:09:42;;;;;;;8.30;5.03;;;;;;;;;;5231864;27;20580;-72
2024/04/17 07:12:09;;;;;;;7.40;4.80;;;;;;;;;;5195913;27;20473;-74
2024/04/17 07:14:35;;;;;;;8.10;4.60;;;;;;;;;;5206975;27;20473;-74
2024/04/17 07:17:00;;;;;;;9.97;5.90;;;;;;;;;;5224722;27;21071;-72
2024/04/17 07:19:26;;;;;;;8.70;4.40;;;;;;;;;;5207397;27;20796;-73
2024/04/17 07:21:53;;;;;;;8.93;5.63;;;;;;;;;;5208572;27;20468;-74
2024/04/17 07:24:19;;;;;;;9.03;5.00;;;;;;;;;;5206415;27;20500;-73
2024/04/17 07:26:45;;;;;;;6.30;3.60;;;;;;;;;;5208798;27;20505;-73
2024/04/17 07:29:11;;;;;;;4.00;3.07;;;;;;;;;;5201529;27;20485;-71
2024/04/17 07:31:37;;;;;;;5.93;3.50;;;;;;;;;;5222860;27;20530;-73
2024/04/17 07:34:03;;;;;;;4.90;3.43;;;;;;;;;;5225927;27;20466;-73
2024/04/17 07:36:29;;;;;;;4.47;3.10;;;;;;;;;;5193919;27;20548;-72
2024/04/17 07:38:55;;;;;;;6.73;4.17;;;;;;;;;;5175031;27;20961;-70
2024/04/17 07:41:21;;;;;;;5.40;3.63;;;;;;;;;;5175654;27;21010;-71
2024/04/17 07:43:47;;;;;;;9.10;4.50;;;;;;;;;;5181706;27;21122;-71
2024/04/17 07:46:13;;;;;;;7.83;4.43;;;;;;;;;;5194653;27;20578;-72
2024/04/17 07:48:39;;;;;;;7.63;5.20;;;;;;;;;;5207278;27;20525;-72
2024/04/17 07:51:05;;;;;;;7.93;4.93;;;;;;;;;;5207876;27;20858;-72
2024/04/17 07:53:31;;;;;;;9.10;5.40;;;;;;;;;;5207807;27;20837;-71
2024/04/17 07:55:58;;;;;;;9.67;5.90;;;;;;;;;;5203136;27;20544;-76
2024/04/17 07:58:24;;;;;;;10.27;5.93;;;;;;;;;;5206156;27;20473;-73
2024/04/17 08:00:50;;;;;;;9.90;5.87;;;;;;;;;;5200234;27;20473;-72
2024/04/17 08:03:16;;;;;;;14.27;6.67;;;;;;;;;;5182717;27;20470;-71
2024/04/17 08:05:42;;;;;;;16.87;7.87;;;;;;;;;;5204383;27;20469;-73
2024/04/17 08:08:08;;;;;;;9.43;6.10;;;;;;;;;;5201438;27;20520;-72
2024/04/17 08:10:35;;;;;;;16.03;7.50;;;;;;;;;;5180286;27;20470;-73
2024/04/17 08:13:11;;;;;;;11.90;7.10;;;;;;;;;;5190039;27;20832;-73
2024/04/17 08:15:39;;;;;;;12.30;7.50;;;;;;;;;;5194371;27;20921;-74
2024/04/17 08:18:05;;;;;;;13.60;7.40;;;;;;;;;;5210046;27;20973;-75
2024/04/17 08:20:31;;;;;;;14.90;8.17;;;;;;;;;;5178282;27;20466;-73
2024/04/17 08:22:57;;;;;;;19.53;8.63;;;;;;;;;;5179490;27;20794;-73
2024/04/17 08:25:23;;;;;;;17.97;8.63;;;;;;;;;;5180218;27;20462;-73
2024/04/17 08:27:49;;;;;;;22.23;8.30;;;;;;;;;;5179369;27;20478;-73
2024/04/17 08:30:15;;;;;;;14.43;8.03;;;;;;;;;;5187875;27;20473;-73
2024/04/17 08:32:43;;;;;;;16.93;9.20;;;;;;;;;;5183822;27;20854;-73
2024/04/17 08:35:09;;;;;;;14.10;8.23;;;;;;;;;;5194759;27;20605;-72
2024/04/17 08:37:36;;;;;;;12.90;8.00;;;;;;;;;;5205413;27;20465;-72
2024/04/17 08:40:02;;;;;;;12.70;7.97;;;;;;;;;;5197550;27;20470;-73
2024/04/17 08:42:29;;;;;;;14.40;8.93;;;;;;;;;;5190608;27;20524;-74
2024/04/17 08:44:55;;;;;;;12.20;7.83;;;;;;;;;;5201149;27;20469;-72
2024/04/17 08:47:23;;;;;;;13.13;8.13;;;;;;;;;;5186721;27;20465;-72
2024/04/17 08:49:50;;;;;;;14.80;8.97;;;;;;;;;;5194381;27;20462;-73
2024/04/17 08:52:16;;;;;;;14.03;8.00;;;;;;;;;;5196927;27;20481;-71
2024/04/17 08:54:43;;;;;;;12.57;7.33;;;;;;;;;;5178279;27;20486;-71
2024/04/17 08:57:11;;;;;;;14.43;9.17;;;;;;;;;;5179100;27;20557;-74
2024/04/17 08:59:37;;;;;;;15.53;8.37;;;;;;;;;;5210736;27;20841;-72
2024/04/17 09:02:03;;;;;;;22.23;9.73;;;;;;;;;;5194993;27;20579;-73
2024/04/17 09:04:30;;;;;;;16.07;8.80;;;;;;;;;;5203794;27;20453;-74
2024/04/17 09:06:56;;;;;;;11.27;7.70;;;;;;;;;;5186244;27;20515;-73
2024/04/17 09:09:23;;;;;;;14.80;9.03;;;;;;;;;;5182962;27;20463;-72
2024/04/17 09:11:51;;;;;;;12.10;7.43;;;;;;;;;;5177711;27;20466;-73
2024/04/17 09:14:19;;;;;;;10.07;6.27;;;;;;;;;;5185830;27;20518;-72
2024/04/17 09:16:45;;;;;;;10.63;6.93;;;;;;;;;;5177788;27;20851;-73
2024/04/17 09:19:11;;;;;;;13.10;7.17;;;;;;;;;;5198045;27;20528;-74
2024/04/17 09:21:38;;;;;;;11.67;7.40;;;;;;;;;;5243371;27;20652;-73
2024/04/17 09:24:04;;;;;;;14.57;8.40;;;;;;;;;;5197171;27;20586;-72
2024/04/17 09:26:30;;;;;;;10.57;6.53;;;;;;;;;;5180964;27;20479;-73
2024/04/17 09:28:56;;;;;;;12.23;7.90;;;;;;;;;;5224781;27;20479;-73
2024/04/17 09:31:23;;;;;;;16.80;7.80;;;;;;;;;;5194004;27;20544;-72
2024/04/17 09:33:49;;;;;;;13.70;8.87;;;;;;;;;;5202976;27;20591;-73
2024/04/17 09:36:15;;;;;;;17.90;9.30;;;;;;;;;;5179651;27;20462;-74
2024/04/17 09:38:41;;;;;;;17.73;10.30;;;;;;;;;;5196468;27;20922;-73
2024/04/17 09:41:08;;;;;;;15.57;9.40;;;;;;;;;;5194253;27;20493;-73
2024/04/17 09:43:35;;;;;;;15.20;9.00;;;;;;;;;;5207040;27;20448;-73
2024/04/17 09:46:02;;;;;;;12.67;8.53;;;;;;;;;;5209212;27;20461;-72
2024/04/17 09:48:29;;;;;;;17.73;9.50;;;;;;;;;;5189433;27;20579;-73
2024/04/17 09:50:57;;;;;;;14.37;8.07;;;;;;;;;;5178610;27;20531;-73
2024/04/17 09:53:24;;;;;;;11.70;7.20;;;;;;;;;;5208700;27;20552;-74
2024/04/17 09:55:50;;;;;;;18.03;6.27;;;;;;;;;;5179044;27;20576;-73
2024/04/17 09:58:16;;;;;;;7.67;5.10;;;;;;;;;;5176643;27;20535;-73
2024/04/17 10:00:43;;;;;;;6.87;4.83;;;;;;;;;;5178812;27;20482;-72
2024/04/17 10:03:09;;;;;;;6.53;4.77;;;;;;;;;;5198864;27;20887;-72
2024/04/17 10:05:35;;;;;;;9.07;4.20;;;;;;;;;;5208889;27;21012;-72
2024/04/17 10:08:01;;;;;;;6.37;4.00;;;;;;;;;;5230412;27;20961;-73
2024/04/17 10:10:28;;;;;;;7.47;4.03;;;;;;;;;;5181483;27;20466;-73
2024/04/17 10:12:55;;;;;;;6.03;3.77;;;;;;;;;;5177337;27;21029;-72
2024/04/17 10:15:21;;;;;;;7.23;3.60;;;;;;;;;;5184828;27;20473;-72
2024/04/17 10:17:47;;;;;;;5.70;4.47;;;;;;;;;;5192358;27;20471;-71
2024/04/17 10:20:25;;;;;;;9.40;5.00;;;;;;;;;;5175678;27;20454;-72
2024/04/17 10:22:51;;;;;;;6.93;4.53;;;;;;;;;;5184714;27;20531;-72
2024/04/17 10:25:20;;;;;;;12.50;5.80;;;;;;;;;;5229196;27;20517;-73
2024/04/17 10:27:48;;;;;;;7.97;4.70;;;;;;;;;;5189343;27;20462;-73
2024/04/17 10:30:14;;;;;;;9.40;6.40;;;;;;;;;;5204027;27;21026;-74
2024/04/17 10:32:41;;;;;;;12.00;6.60;;;;;;;;;;5202492;27;20525;-71
2024/04/17 10:35:16;;;;;;;13.53;7.30;;;;;;;;;;5197052;27;20524;-73
2024/04/17 10:37:45;;;;;;;18.17;7.63;;;;;;;;;;5186538;27;20879;-72
2024/04/17 10:40:11;;;;;;;19.40;7.63;;;;;;;;;;5197412;27;20747;-72
2024/04/17 10:42:37;;;;;;;19.13;8.27;;;;;;;;;;5192961;27;20802;-73
2024/04/17 10:45:05;;;;;;;13.50;8.40;;;;;;;;;;5184618;27;20480;-73
2024/04/17 10:47:33;;;;;;;12.53;9.10;;;;;;;;;;5176264;27;20870;-71
2024/04/17 10:49:59;;;;;;;16.37;7.60;;;;;;;;;;5177060;27;20514;-72
2024/04/17 10:52:26;;;;;;;13.60;7.60;;;;;;;;;;5209472;27;20810;-72
2024/04/17 10:54:55;;;;;;;28.00;7.93;;;;;;;;;;5207683;27;20469;-72
2024/04/17 10:57:21;;;;;;;10.70;6.40;;;;;;;;;;5208354;27;20512;-72
2024/04/17 10:59:48;;;;;;;12.50;7.83;;;;;;;;;;5195263;27;20520;-73
2024/04/17 11:02:14;;;;;;;8.73;6.80;;;;;;;;;;5176259;27;20466;-72
2024/04/17 11:04:40;;;;;;;12.93;6.97;;;;;;;;;;5186830;27;20473;-72
2024/04/17 11:07:10;;;;;;;8.10;6.30;;;;;;;;;;5193459;27;20526;-72
2024/04/17 11:09:36;;;;;;;18.17;7.60;;;;;;;;;;5187465;27;21012;-72
2024/04/17 11:12:02;;;;;;;13.67;7.27;;;;;;;;;;5189026;27;20593;-72
2024/04/17 11:14:28;;;;;;;13.27;6.77;;;;;;;;;;5192170;27;20470;-74
2024/04/17 11:16:56;;;;;;;18.53;7.40;;;;;;;;;;5194974;27;20589;-73
2024/04/17 11:19:22;;;;;;;15.70;7.20;;;;;;;;;;5208989;27;20445;-74
2024/04/17 11:21:51;;;;;;;15.67;6.50;;;;;;;;;;5182687;27;20533;-74
2024/04/17 11:24:18;;;;;;;16.43;7.40;;;;;;;;;;5176023;27;20506;-74
2024/04/17 11:26:44;;;;;;;11.57;6.87;;;;;;;;;;5184161;27;20536;-73
2024/04/17 11:29:16;;;;;;;13.20;6.70;;;;;;;;;;5189518;27;20834;-74
2024/04/17 11:31:45;;;;;;;16.90;6.30;;;;;;;;;;5178727;27;20567;-73
2024/04/17 11:34:21;;;;;;;12.30;6.47;;;;;;;;;;5181846;27;20523;-73
2024/04/17 11:36:48;;;;;;;8.10;5.53;;;;;;;;;;5200791;27;21011;-73
2024/04/17 11:39:14;;;;;;;7.70;4.23;;;;;;;;;;5198666;27;20545;-74
2024/04/17 11:41:40;;;;;;;9.83;4.43;;;;;;;;;;5209291;27;20509;-74
2024/04/17 11:44:06;;;;;;;5.80;4.20;;;;;;;;;;5212459;27;20856;-72
2024/04/17 11:46:32;;;;;;;8.33;5.40;;;;;;;;;;5193356;27;20466;-74
2024/04/17 11:48:58;;;;;;;10.53;5.47;;;;;;;;;;5187321;27;20556;-73
2024/04/17 11:51:24;;;;;;;12.50;4.90;;;;;;;;;;5191301;27;20581;-73
2024/04/17 11:53:50;;;;;;;6.47;4.33;;;;;;;;;;5203258;27;20784;-73
2024/04/17 11:56:16;;;;;;;6.63;4.60;;;;;;;;;;5189343;27;20490;-74
2024/04/17 11:58:45;;;;;;;9.87;5.30;;;;;;;;;;5184917;27;20476;-74
2024/04/17 12:01:11;;;;;;;10.87;4.97;;;;;;;;;;5211318;27;20472;-73
2024/04/17 12:03:37;;;;;;;7.03;4.60;;;;;;;;;;5211012;27;20524;-73
2024/04/17 12:06:03;;;;;;;9.83;5.13;;;;;;;;;;5211538;27;20546;-74
2024/04/17 12:08:29;;;;;;;13.73;4.80;;;;;;;;;;5192113;27;20485;-74
2024/04/17 12:10:55;;;;;;;7.03;5.40;;;;;;;;;;5189276;27;21011;-74
2024/04/17 12:13:21;;;;;;;10.20;5.53;;;;;;;;;;5178418;27;20450;-74
2024/04/17 12:15:47;;;;;;;9.63;4.73;;;;;;;;;;5186313;27;20480;-73
2024/04/17 12:18:13;;;;;;;11.83;5.73;;;;;;;;;;5200138;27;21046;-74
2024/04/17 12:20:39;;;;;;;7.17;4.60;;;;;;;;;;5211224;27;20729;-73
2024/04/17 12:23:05;;;;;;;7.20;4.33;;;;;;;;;;5208756;27;20461;-73
2024/04/17 12:28:16;;;;;;;6.13;3.20;;;;;;;;;;5235286;27;20566;-73
2024/04/17 12:30:42;;;;;;;5.30;2.87;;;;;;;;;;5246956;27;20471;-74
2024/04/17 12:33:08;;;;;;;8.30;3.50;;;;;;;;;;5207639;27;20477;-73
2024/04/17 12:35:34;;;;;;;13.63;3.33;;;;;;;;;;5205220;27;20559;-73
2024/04/17 12:38:00;;;;;;;11.67;3.10;;;;;;;;;;5191287;27;20896;-73
2024/04/17 12:40:26;;;;;;;6.73;3.50;;;;;;;;;;5198749;27;20606;-72
2024/04/17 12:42:52;;;;;;;9.73;4.00;;;;;;;;;;5181807;27;20564;-72
2024/04/17 12:45:18;;;;;;;8.03;3.43;;;;;;;;;;5180894;27;20490;-73
2024/04/17 12:47:45;;;;;;;9.00;3.50;;;;;;;;;;5184330;27;20504;-73
2024/04/17 12:50:11;;;;;;;5.83;3.03;;;;;;;;;;5243756;27;20448;-74
2024/04/17 12:52:36;;;;;;;7.00;3.10;;;;;;;;;;5244853;27;21277;-75
2024/04/17 12:55:03;;;;;;;7.10;3.20;;;;;;;;;;5249439;27;20812;-76
2024/04/17 12:57:28;;;;;;;4.03;2.97;;;;;;;;;;5241805;27;20466;-73
2024/04/17 12:59:54;;;;;;;6.57;2.60;;;;;;;;;;5239799;27;20468;-74
2024/04/17 13:02:20;;;;;;;5.90;2.73;;;;;;;;;;5244089;27;20473;-74
2024/04/17 13:04:46;;;;;;;8.70;2.70;;;;;;;;;;5244331;27;20443;-75
2024/04/17 13:07:12;;;;;;;6.07;2.83;;;;;;;;;;5242756;27;20507;-74
2024/04/17 13:09:41;;;;;;;7.10;3.07;;;;;;;;;;5209861;27;20461;-75
2024/04/17 13:12:07;;;;;;;6.03;3.77;;;;;;;;;;5209619;27;20563;-75
2024/04/17 13:14:33;;;;;;;7.07;3.20;;;;;;;;;;5209891;27;20497;-72
2024/04/17 13:16:59;;;;;;;5.30;2.77;;;;;;;;;;5212374;27;20891;-75
2024/04/17 13:19:27;;;;;;;11.17;3.70;;;;;;;;;;5222679;27;20564;-74
2024/04/17 13:21:53;;;;;;;5.47;3.30;;;;;;;;;;5190632;27;20486;-74
2024/04/17 13:24:19;;;;;;;6.20;3.30;;;;;;;;;;5177246;27;20459;-73
2024/04/17 13:26:45;;;;;;;6.10;3.80;;;;;;;;;;5233729;27;20475;-74
2024/04/17 13:29:11;;;;;;;10.10;3.60;;;;;;;;;;5242378;27;20512;-74
2024/04/17 13:31:37;;;;;;;10.67;4.10;;;;;;;;;;5238729;27;20472;-75
2024/04/17 13:34:02;;;;;;;9.70;4.10;;;;;;;;;;5194687;27;20478;-74
2024/04/17 13:36:28;;;;;;;6.13;3.63;;;;;;;;;;5177101;27;20463;-75
2024/04/17 13:38:55;;;;;;;7.60;4.03;;;;;;;;;;5204989;27;20525;-75
2024/04/17 13:41:21;;;;;;;8.47;4.63;;;;;;;;;;5206780;27;20853;-74
2024/04/17 13:43:47;;;;;;;11.70;4.80;;;;;;;;;;5193724;27;20482;-76
2024/04/17 13:46:16;;;;;;;9.10;5.10;;;;;;;;;;5177248;27;20481;-76
2024/04/17 13:48:42;;;;;;;6.17;3.90;;;;;;;;;;5197043;27;20476;-74
2024/04/17 13:51:10;;;;;;;9.10;4.17;;;;;;;;;;5211368;27;20945;-74
2024/04/17 13:53:36;;;;;;;7.60;3.30;;;;;;;;;;5212497;27;20469;-74
2024/04/17 13:56:02;;;;;;;10.17;4.60;;;;;;;;;;5205304;27;20477;-72
2024/04/17 13:58:28;;;;;;;4.80;3.27;;;;;;;;;;5208829;27;20484;-74
2024/04/17 14:00:55;;;;;;;4.10;3.40;;;;;;;;;;5206303;27;20612;-71
2024/04/17 14:03:23;;;;;;;7.93;3.90;;;;;;;;;;5206772;27;20469;-71
2024/04/17 14:05:50;;;;;;;5.60;3.70;;;;;;;;;;5206183;27;21103;-71
2024/04/17 14:08:16;;;;;;;10.13;3.27;;;;;;;;;;5190413;27;20539;-71
2024/04/17 14:10:42;;;;;;;8.53;3.83;;;;;;;;;;5190870;27;20486;-71
2024/04/17 14:13:08;;;;;;;13.53;3.27;;;;;;;;;;5176990;27;21055;-71
2024/04/17 14:15:34;;;;;;;5.23;3.57;;;;;;;;;;5202001;27;20568;-70
2024/04/17 14:18:00;;;;;;;8.33;3.00;;;;;;;;;;5214581;27;20534;-70
2024/04/17 14:20:26;;;;;;;5.50;3.40;;;;;;;;;;5199574;27;20590;-71
2024/04/17 14:22:52;;;;;;;4.23;2.70;;;;;;;;;;5177373;27;20482;-71
2024/04/17 14:25:18;;;;;;;6.87;3.90;;;;;;;;;;5187747;27;20477;-71
2024/04/17 14:27:44;;;;;;;3.63;2.60;;;;;;;;;;5209322;27;21032;-72
2024/04/17 14:30:10;;;;;;;4.40;2.93;;;;;;;;;;5186485;27;20526;-72
2024/04/17 14:32:36;;;;;;;8.43;3.33;;;;;;;;;;5206921;27;20493;-71
2024/04/17 14:35:02;;;;;;;9.43;3.60;;;;;;;;;;5210369;27;20472;-72
2024/04/17 14:37:28;;;;;;;11.43;3.80;;;;;;;;;;5185476;27;20814;-71
2024/04/17 14:39:54;;;;;;;5.20;3.20;;;;;;;;;;5178161;27;20575;-72
2024/04/17 14:42:20;;;;;;;6.60;3.80;;;;;;;;;;5192951;27;20480;-72
2024/04/17 14:44:46;;;;;;;7.23;3.80;;;;;;;;;;5209520;27;20449;-72
2024/04/17 14:47:12;;;;;;;5.53;3.37;;;;;;;;;;5201181;27;20552;-72
2024/04/17 14:49:38;;;;;;;7.43;4.50;;;;;;;;;;5211442;27;20465;-72
2024/04/17 14:52:04;;;;;;;7.00;3.37;;;;;;;;;;5212270;27;20789;-72
2024/04/17 14:54:30;;;;;;;5.30;3.20;;;;;;;;;;5216488;27;20551;-72
2024/04/17 14:56:56;;;;;;;5.67;3.90;;;;;;;;;;5217067;27;20453;-72
2024/04/17 14:59:22;;;;;;;7.07;3.03;;;;;;;;;;5203008;27;20459;-72
2024/04/17 15:01:48;;;;;;;5.93;3.17;;;;;;;;;;5216410;27;20463;-71
2024/04/17 15:04:14;;;;;;;5.77;3.50;;;;;;;;;;5222802;27;20457;-72
2024/04/17 15:06:42;;;;;;;7.23;3.20;;;;;;;;;;5223217;27;20461;-74
2024/04/17 15:09:07;;;;;;;12.47;3.27;;;;;;;;;;5204459;27;20533;-74
2024/04/17 15:11:33;;;;;;;15.53;4.10;;;;;;;;;;5210881;27;20482;-71
2024/04/17 15:13:59;;;;;;;3.90;2.70;;;;;;;;;;5178893;27;20467;-72
2024/04/17 15:16:27;;;;;;;7.10;3.50;;;;;;;;;;5176524;27;20542;-72
2024/04/17 15:18:53;;;;;;;6.93;3.70;;;;;;;;;;5178242;27;20446;-72
2024/04/17 15:21:21;;;;;;;5.33;3.93;;;;;;;;;;5184779;27;20594;-71
2024/04/17 15:23:48;;;;;;;5.93;3.70;;;;;;;;;;5209812;27;20520;-73
2024/04/17 15:26:15;;;;;;;8.60;3.43;;;;;;;;;;5210813;27;20449;-71
2024/04/17 15:28:41;;;;;;;4.07;2.90;;;;;;;;;;5211169;27;20448;-71
2024/04/17 15:31:10;;;;;;;6.40;3.17;;;;;;;;;;5223212;27;20524;-72
2024/04/17 15:33:36;;;;;;;9.93;3.43;;;;;;;;;;5197436;27;20524;-71
2024/04/17 15:36:03;;;;;;;7.77;3.37;;;;;;;;;;5176592;27;20990;-71
2024/04/17 15:38:29;;;;;;;7.30;3.63;;;;;;;;;;5179952;27;21014;-71
2024/04/17 15:40:59;;;;;;;5.50;3.20;;;;;;;;;;5178859;27;20606;-72
2024/04/17 15:43:28;;;;;;;4.50;2.83;;;;;;;;;;5196931;27;20498;-73
2024/04/17 15:45:55;;;;;;;5.57;3.30;;;;;;;;;;5187064;27;20535;-72
2024/04/17 15:48:24;;;;;;;10.57;3.87;;;;;;;;;;5190804;27;20465;-72
2024/04/17 15:50:55;;;;;;;6.70;2.90;;;;;;;;;;5203092;27;20601;-70
2024/04/17 15:53:21;;;;;;;8.43;3.10;;;;;;;;;;5210308;27;20449;-70
2024/04/17 15:55:47;;;;;;;3.90;3.23;;;;;;;;;;5190230;27;20531;-70
2024/04/17 15:58:13;;;;;;;6.37;2.80;;;;;;;;;;5175521;27;20466;-72
2024/04/17 16:00:39;;;;;;;3.17;2.30;;;;;;;;;;5202483;27;20655;-72
2024/04/17 16:03:05;;;;;;;6.60;3.53;;;;;;;;;;5210913;27;20509;-70
2024/04/17 16:05:35;;;;;;;9.40;2.53;;;;;;;;;;5211065;27;20582;-71
2024/04/17 16:08:01;;;;;;;7.87;4.17;;;;;;;;;;5210512;27;20452;-71
2024/04/17 16:10:27;;;;;;;7.90;3.03;;;;;;;;;;5189247;27;20597;-70
2024/04/17 16:12:53;;;;;;;3.03;2.90;;;;;;;;;;5201164;27;20650;-71
2024/04/17 16:15:19;;;;;;;8.63;3.30;;;;;;;;;;5243409;27;20455;-70
2024/04/17 16:17:45;;;;;;;4.73;2.10;;;;;;;;;;5228373;27;20461;-70
2024/04/17 16:20:11;;;;;;;4.80;2.20;;;;;;;;;;5191345;27;20582;-70
2024/04/17 16:22:37;;;;;;;2.67;2.27;;;;;;;;;;5177761;27;20531;-70
2024/04/17 16:25:03;;;;;;;5.53;2.20;;;;;;;;;;5204450;27;20943;-71
2024/04/17 16:27:29;;;;;;;1.90;1.70;;;;;;;;;;5242602;27;20527;-71
2024/04/17 16:29:55;;;;;;;5.90;2.07;;;;;;;;;;5225609;27;20544;-70
2024/04/17 16:32:21;;;;;;;5.67;2.97;;;;;;;;;;5210445;27;20473;-70
2024/04/17 16:34:47;;;;;;;8.87;3.00;;;;;;;;;;5209983;27;20509;-71
2024/04/17 16:37:13;;;;;;;7.23;3.00;;;;;;;;;;5177125;27;20474;-70
2024/04/17 16:39:43;;;;;;;8.30;3.33;;;;;;;;;;5188508;27;20465;-70
2024/04/17 16:42:12;;;;;;;14.60;3.07;;;;;;;;;;5221851;27;21024;-71
2024/04/17 16:44:38;;;;;;;6.47;3.27;;;;;;;;;;5214546;27;20473;-70
2024/04/17 16:47:04;;;;;;;7.03;3.00;;;;;;;;;;5246514;27;20455;-70
2024/04/17 16:49:34;;;;;;;4.93;3.43;;;;;;;;;;5218501;27;21165;-70
2024/04/17 16:52:00;;;;;;;11.00;4.17;;;;;;;;;;5208516;27;20472;-70
2024/04/17 16:54:25;;;;;;;6.50;3.30;;;;;;;;;;5197441;27;20620;-71
2024/04/17 16:56:51;;;;;;;6.20;3.43;;;;;;;;;;5176996;27;20459;-70
2024/04/17 16:59:17;;;;;;;6.20;3.20;;;;;;;;;;5199369;27;20522;-72
2024/04/17 17:01:43;;;;;;;8.33;3.40;;;;;;;;;;5177271;27;20598;-72
2024/04/17 17:04:10;;;;;;;5.10;2.80;;;;;;;;;;5192714;27;20493;-72
2024/04/17 17:06:36;;;;;;;4.60;2.73;;;;;;;;;;5210544;27;20561;-72
2024/04/17 17:09:02;;;;;;;3.93;3.03;;;;;;;;;;5211511;27;21001;-72
2024/04/17 17:11:28;;;;;;;4.40;2.70;;;;;;;;;;5193108;27;21060;-72
2024/04/17 17:13:54;;;;;;;4.53;2.97;;;;;;;;;;5210544;27;20515;-74
2024/04/17 17:16:20;;;;;;;5.60;2.93;;;;;;;;;;5238760;27;20479;-73
2024/04/17 17:18:46;;;;;;;3.87;2.83;;;;;;;;;;5238439;27;20916;-73
2024/04/17 17:21:13;;;;;;;5.33;3.13;;;;;;;;;;5193671;27;20526;-73
2024/04/17 17:23:39;;;;;;;6.00;3.03;;;;;;;;;;5177033;27;20973;-74
2024/04/17 17:26:09;;;;;;;3.53;2.83;;;;;;;;;;5177466;27;20510;-73
2024/04/17 17:28:35;;;;;;;6.17;3.87;;;;;;;;;;5177458;27;20454;-73
2024/04/17 17:31:01;;;;;;;3.80;2.90;;;;;;;;;;5225983;27;20547;-74
2024/04/17 17:33:28;;;;;;;4.53;3.10;;;;;;;;;;5204873;27;20518;-74
2024/04/17 17:35:57;;;;;;;4.50;2.60;;;;;;;;;;5176899;27;20507;-74
2024/04/17 17:38:24;;;;;;;6.40;3.57;;;;;;;;;;5176805;27;20502;-74
2024/04/17 17:40:50;;;;;;;10.00;3.33;;;;;;;;;;5200773;27;21077;-76
2024/04/17 17:43:16;;;;;;;7.20;3.90;;;;;;;;;;5206683;27;20469;-75
2024/04/17 17:45:42;;;;;;;5.60;3.00;;;;;;;;;;5227112;27;20464;-74
2024/04/17 17:48:08;;;;;;;3.40;2.50;;;;;;;;;;5243138;27;20439;-74
2024/04/17 17:50:34;;;;;;;4.27;2.70;;;;;;;;;;5211729;27;20474;-74
2024/04/17 17:53:00;;;;;;;8.60;3.70;;;;;;;;;;5194292;27;20536;-73
2024/04/17 17:55:26;;;;;;;6.93;3.17;;;;;;;;;;5198309;27;20469;-74
2024/04/17 17:57:52;;;;;;;6.60;3.17;;;;;;;;;;5210551;27;20445;-74
2024/04/17 18:00:18;;;;;;;7.40;3.63;;;;;;;;;;5206366;27;20524;-74
2024/04/17 18:02:47;;;;;;;10.20;4.20;;;;;;;;;;5243439;27;20507;-74
2024/04/17 18:05:13;;;;;;;8.53;3.80;;;;;;;;;;5219827;27;21140;-74
2024/04/17 18:07:41;;;;;;;8.90;4.10;;;;;;;;;;5210424;27;20449;-74
2024/04/17 18:10:07;;;;;;;6.87;3.27;;;;;;;;;;5195711;27;20539;-74
2024/04/17 18:12:33;;;;;;;8.37;4.43;;;;;;;;;;5177537;27;21053;-74
2024/04/17 18:15:02;;;;;;;6.53;3.20;;;;;;;;;;5177070;27;20514;-74
2024/04/17 18:17:28;;;;;;;6.10;3.23;;;;;;;;;;5202498;27;20524;-74
2024/04/17 18:19:58;;;;;;;8.47;3.20;;;;;;;;;;5204303;27;20541;-74
2024/04/17 18:22:24;;;;;;;6.50;3.10;;;;;;;;;;5208639;27;20521;-74
2024/04/17 18:24:50;;;;;;;4.67;3.07;;;;;;;;;;5199578;27;21037;-74
2024/04/17 18:27:22;;;;;;;3.90;2.90;;;;;;;;;;5174638;27;20451;-75
2024/04/17 18:29:48;;;;;;;4.67;2.63;;;;;;;;;;5179475;27;20475;-73
2024/04/17 18:32:15;;;;;;;3.93;2.87;;;;;;;;;;5204921;27;20536;-73
2024/04/17 18:34:41;;;;;;;6.90;3.30;;;;;;;;;;5242856;27;20463;-73
2024/04/17 18:37:09;;;;;;;7.97;3.93;;;;;;;;;;5242738;27;20587;-73
2024/04/17 18:39:36;;;;;;;3.70;3.23;;;;;;;;;;5197367;27;20534;-73
2024/04/17 18:42:02;;;;;;;5.03;3.47;;;;;;;;;;5209441;27;20834;-73
2024/04/17 18:44:29;;;;;;;6.90;3.40;;;;;;;;;;5207726;27;20520;-74
2024/04/17 18:46:58;;;;;;;5.77;3.10;;;;;;;;;;5196502;27;20493;-73
2024/04/17 18:49:26;;;;;;;9.80;4.00;;;;;;;;;;5177862;27;20526;-73
2024/04/17 18:51:54;;;;;;;8.03;3.37;;;;;;;;;;5192686;27;20485;-73
2024/04/17 18:54:20;;;;;;;7.30;4.53;;;;;;;;;;5177297;27;20552;-72
2024/04/17 18:56:46;;;;;;;6.07;3.60;;;;;;;;;;5172850;27;20474;-72
2024/04/17 18:59:13;;;;;;;6.60;4.47;;;;;;;;;;5206180;27;20502;-72
2024/04/17 19:01:40;;;;;;;6.77;3.47;;;;;;;;;;5197086;27;20556;-72
2024/04/17 19:04:07;;;;;;;6.63;3.40;;;;;;;;;;5185148;27;20530;-71
2024/04/17 19:06:33;;;;;;;6.30;3.83;;;;;;;;;;5207149;27;21080;-72
2024/04/17 19:09:02;;;;;;;12.00;4.50;;;;;;;;;;5183565;27;21070;-71
2024/04/17 19:11:28;;;;;;;6.83;4.47;;;;;;;;;;5175446;27;20462;-71
2024/04/17 19:13:54;;;;;;;6.87;4.20;;;;;;;;;;5188854;27;20471;-72
2024/04/17 19:16:20;;;;;;;6.20;4.07;;;;;;;;;;5203713;27;20484;-71
2024/04/17 19:18:51;;;;;;;8.57;4.60;;;;;;;;;;5205220;27;20529;-72
2024/04/17 19:21:19;;;;;;;13.63;4.43;;;;;;;;;;5193661;27;21053;-71
2024/04/17 19:23:46;;;;;;;11.70;4.43;;;;;;;;;;5193893;27;20508;-72
2024/04/17 19:26:15;;;;;;;8.80;4.57;;;;;;;;;;5183131;27;20530;-71
2024/04/17 19:28:44;;;;;;;10.60;4.40;;;;;;;;;;5189052;27;20984;-71
2024/04/17 19:31:28;;;;;;;11.80;5.70;;;;;;;;;;5226617;27;20532;-73
2024/04/17 19:33:55;;;;;;;6.43;4.47;;;;;;;;;;5213032;27;20489;-72
2024/04/17 19:36:27;;;;;;;13.70;7.87;;;;;;;;;;5206135;27;20870;-72